sensor_id;sensor_type;location;lat;lon;timestamp;temperature;humidity
10263;DHT22;5177;50.068;8.156;2023-04-03T00:00:52;5.30;99.90
10263;DHT22;5177;50.068;8.156;2023-04-03T00:03:18;5.30;99.90
10263;DHT22;5177;50.068;8.156;2023-04-03T00:05:43;5.30;99.90
10263;DHT22;5177;50.068;8.156;2023-04-03T00:08:09;5.30;99.90
10263;DHT22;5177;50.068;8.156;2023-04-03T00:10:35;5.40;99.90
10263;DHT22;5177;50.068;8.156;2023-04-03T00:13:01;5.30;99.90
10263;DHT22;5177;50.068;8.156;2023-04-03T00:15:27;5.40;99.90
10263;DHT22;5177;50.068;8.156;2023-04-03T00:17:52;5.40;99.90
10263;DHT22;5177;50.068;8.156;2023-04-03T00:20:17;5.40;99.90
10263;DHT22;5177;50.068;8.156;2023-04-03T00:22:44;5.40;99.90
10263;DHT22;5177;50.068;8.156;2023-04-03T00:25:10;5.40;99.90
10263;DHT22;5177;50.068;8.156;2023-04-03T00:27:36;5.40;99.90
10263;DHT22;5177;50.068;8.156;2023-04-03T00:30:02;5.40;99.90
10263;DHT22;5177;50.068;8.156;2023-04-03T00:32:27;5.40;99.90
10263;DHT22;5177;50.068;8.156;2023-04-03T00:34:53;5.40;99.90
10263;DHT22;5177;50.068;8.156;2023-04-03T00:37:18;5.40;99.90
10263;DHT22;5177;50.068;8.156;2023-04-03T00:39:44;5.50;99.90
10263;DHT22;5177;50.068;8.156;2023-04-03T00:42:09;5.50;99.90
10263;DHT22;5177;50.068;8.156;2023-04-03T00:47:05;5.50;99.90
10263;DHT22;5177;50.068;8.156;2023-04-03T00:49:32;5.50;99.90
10263;DHT22;5177;50.068;8.156;2023-04-03T00:51:58;5.50;99.90
10263;DHT22;5177;50.068;8.156;2023-04-03T00:54:24;5.50;99.90
10263;DHT22;5177;50.068;8.156;2023-04-03T00:56:51;5.50;99.90
10263;DHT22;5177;50.068;8.156;2023-04-03T00:59:18;5.50;99.90
10263;DHT22;5177;50.068;8.156;2023-04-03T01:01:47;5.60;99.90
10263;DHT22;5177;50.068;8.156;2023-04-03T01:06:52;5.50;99.90
10263;DHT22;5177;50.068;8.156;2023-04-03T01:09:17;5.50;99.90
10263;DHT22;5177;50.068;8.156;2023-04-03T01:11:43;5.50;99.90
10263;DHT22;5177;50.068;8.156;2023-04-03T01:14:08;5.50;99.90
10263;DHT22;5177;50.068;8.156;2023-04-03T01:16:34;5.60;99.90
10263;DHT22;5177;50.068;8.156;2023-04-03T01:19:00;5.60;99.90
10263;DHT22;5177;50.068;8.156;2023-04-03T01:26:23;5.50;99.90
10263;DHT22;5177;50.068;8.156;2023-04-03T01:28:50;5.60;99.90
10263;DHT22;5177;50.068;8.156;2023-04-03T01:31:20;5.50;99.90
10263;DHT22;5177;50.068;8.156;2023-04-03T01:33:47;5.60;99.90
10263;DHT22;5177;50.068;8.156;2023-04-03T01:36:14;5.60;99.90
10263;DHT22;5177;50.068;8.156;2023-04-03T01:38:40;5.70;99.90
10263;DHT22;5177;50.068;8.156;2023-04-03T01:41:06;5.70;99.90
10263;DHT22;5177;50.068;8.156;2023-04-03T01:43:32;5.80;99.90
10263;DHT22;5177;50.068;8.156;2023-04-03T01:45:57;5.70;99.90
10263;DHT22;5177;50.068;8.156;2023-04-03T01:48:22;5.70;99.90
10263;DHT22;5177;50.068;8.156;2023-04-03T01:50:48;5.70;99.90
10263;DHT22;5177;50.068;8.156;2023-04-03T01:53:13;5.70;99.90
10263;DHT22;5177;50.068;8.156;2023-04-03T01:55:39;5.70;99.90
10263;DHT22;5177;50.068;8.156;2023-04-03T01:58:05;5.70;99.90
10263;DHT22;5177;50.068;8.156;2023-04-03T02:00:30;5.70;99.90
10263;DHT22;5177;50.068;8.156;2023-04-03T02:02:56;5.70;99.90
10263;DHT22;5177;50.068;8.156;2023-04-03T02:05:22;5.60;99.90
10263;DHT22;5177;50.068;8.156;2023-04-03T02:07:47;5.70;99.90
10263;DHT22;5177;50.068;8.156;2023-04-03T02:10:13;5.70;99.90
10263;DHT22;5177;50.068;8.156;2023-04-03T02:12:38;5.60;99.90
10263;DHT22;5177;50.068;8.156;2023-04-03T02:15:04;5.70;99.90
10263;DHT22;5177;50.068;8.156;2023-04-03T02:17:30;5.70;99.90
10263;DHT22;5177;50.068;8.156;2023-04-03T02:19:55;5.70;99.90
10263;DHT22;5177;50.068;8.156;2023-04-03T02:22:21;5.70;99.90
10263;DHT22;5177;50.068;8.156;2023-04-03T02:24:46;5.70;99.90
10263;DHT22;5177;50.068;8.156;2023-04-03T02:27:12;5.70;99.90
10263;DHT22;5177;50.068;8.156;2023-04-03T02:29:37;5.60;99.90
10263;DHT22;5177;50.068;8.156;2023-04-03T02:32:03;5.60;99.90
10263;DHT22;5177;50.068;8.156;2023-04-03T02:34:28;5.70;99.90
10263;DHT22;5177;50.068;8.156;2023-04-03T02:36:54;5.70;99.90
10263;DHT22;5177;50.068;8.156;2023-04-03T02:39:20;5.80;99.90
10263;DHT22;5177;50.068;8.156;2023-04-03T02:41:45;5.70;99.90
10263;DHT22;5177;50.068;8.156;2023-04-03T02:44:11;5.70;99.90
10263;DHT22;5177;50.068;8.156;2023-04-03T02:46:36;5.80;99.90
10263;DHT22;5177;50.068;8.156;2023-04-03T02:49:02;5.70;99.90
10263;DHT22;5177;50.068;8.156;2023-04-03T02:51:27;5.70;99.90
10263;DHT22;5177;50.068;8.156;2023-04-03T02:53:53;5.70;99.90
10263;DHT22;5177;50.068;8.156;2023-04-03T02:56:18;5.70;99.90
10263;DHT22;5177;50.068;8.156;2023-04-03T02:58:45;5.80;99.90
10263;DHT22;5177;50.068;8.156;2023-04-03T03:01:11;5.70;99.90
10263;DHT22;5177;50.068;8.156;2023-04-03T03:03:36;5.70;99.90
10263;DHT22;5177;50.068;8.156;2023-04-03T03:06:06;5.60;99.90
10263;DHT22;5177;50.068;8.156;2023-04-03T03:08:32;5.60;99.90
10263;DHT22;5177;50.068;8.156;2023-04-03T03:10:58;5.60;99.90
10263;DHT22;5177;50.068;8.156;2023-04-03T03:13:23;5.60;99.90
10263;DHT22;5177;50.068;8.156;2023-04-03T03:15:49;5.60;99.90
10263;DHT22;5177;50.068;8.156;2023-04-03T03:18:15;5.60;99.90
10263;DHT22;5177;50.068;8.156;2023-04-03T03:20:40;5.60;99.90
10263;DHT22;5177;50.068;8.156;2023-04-03T03:23:06;5.50;99.90
10263;DHT22;5177;50.068;8.156;2023-04-03T03:25:31;5.50;99.90
10263;DHT22;5177;50.068;8.156;2023-04-03T03:27:57;5.50;99.90
10263;DHT22;5177;50.068;8.156;2023-04-03T03:30:22;5.50;99.90
10263;DHT22;5177;50.068;8.156;2023-04-03T03:32:48;5.50;99.90
10263;DHT22;5177;50.068;8.156;2023-04-03T03:35:13;5.50;99.90
10263;DHT22;5177;50.068;8.156;2023-04-03T03:37:39;5.50;99.90
10263;DHT22;5177;50.068;8.156;2023-04-03T03:40:05;5.40;99.90
10263;DHT22;5177;50.068;8.156;2023-04-03T03:42:30;5.40;99.90
10263;DHT22;5177;50.068;8.156;2023-04-03T03:44:56;5.30;99.90
10263;DHT22;5177;50.068;8.156;2023-04-03T03:47:21;5.30;99.90
10263;DHT22;5177;50.068;8.156;2023-04-03T03:49:47;5.40;99.90
10263;DHT22;5177;50.068;8.156;2023-04-03T03:52:13;5.20;99.90
10263;DHT22;5177;50.068;8.156;2023-04-03T03:54:38;5.20;99.90
10263;DHT22;5177;50.068;8.156;2023-04-03T03:57:04;5.20;99.90
10263;DHT22;5177;50.068;8.156;2023-04-03T03:59:30;5.20;99.90
10263;DHT22;5177;50.068;8.156;2023-04-03T04:01:55;5.20;99.90
10263;DHT22;5177;50.068;8.156;2023-04-03T04:04:21;5.10;99.90
10263;DHT22;5177;50.068;8.156;2023-04-03T04:06:46;5.10;99.90
10263;DHT22;5177;50.068;8.156;2023-04-03T04:09:12;5.10;99.90
10263;DHT22;5177;50.068;8.156;2023-04-03T04:11:38;5.00;99.90
10263;DHT22;5177;50.068;8.156;2023-04-03T04:14:05;4.90;99.90
10263;DHT22;5177;50.068;8.156;2023-04-03T04:16:30;5.00;99.90
10263;DHT22;5177;50.068;8.156;2023-04-03T04:18:56;5.00;99.90
10263;DHT22;5177;50.068;8.156;2023-04-03T04:21:21;4.90;99.90
10263;DHT22;5177;50.068;8.156;2023-04-03T04:23:47;4.90;99.90
10263;DHT22;5177;50.068;8.156;2023-04-03T04:26:12;4.90;99.90
10263;DHT22;5177;50.068;8.156;2023-04-03T04:28:38;4.90;99.90
10263;DHT22;5177;50.068;8.156;2023-04-03T04:31:03;4.90;99.90
10263;DHT22;5177;50.068;8.156;2023-04-03T04:33:29;4.90;99.90
10263;DHT22;5177;50.068;8.156;2023-04-03T04:35:55;4.90;99.90
10263;DHT22;5177;50.068;8.156;2023-04-03T04:38:20;4.80;99.90
10263;DHT22;5177;50.068;8.156;2023-04-03T04:40:47;4.80;99.90
10263;DHT22;5177;50.068;8.156;2023-04-03T04:43:12;4.80;99.90
10263;DHT22;5177;50.068;8.156;2023-04-03T04:45:40;4.80;99.90
10263;DHT22;5177;50.068;8.156;2023-04-03T04:48:05;4.70;99.90
10263;DHT22;5177;50.068;8.156;2023-04-03T04:50:31;4.70;99.90
10263;DHT22;5177;50.068;8.156;2023-04-03T04:52:56;4.60;99.90
10263;DHT22;5177;50.068;8.156;2023-04-03T04:55:22;4.50;99.90
10263;DHT22;5177;50.068;8.156;2023-04-03T04:57:48;4.50;99.90
10263;DHT22;5177;50.068;8.156;2023-04-03T05:00:13;4.50;99.90
10263;DHT22;5177;50.068;8.156;2023-04-03T05:02:40;4.40;99.90
10263;DHT22;5177;50.068;8.156;2023-04-03T05:05:05;4.40;99.90
10263;DHT22;5177;50.068;8.156;2023-04-03T05:07:31;4.30;99.90
10263;DHT22;5177;50.068;8.156;2023-04-03T05:09:56;4.30;99.90
10263;DHT22;5177;50.068;8.156;2023-04-03T05:12:22;4.20;99.90
10263;DHT22;5177;50.068;8.156;2023-04-03T05:14:47;4.20;99.90
10263;DHT22;5177;50.068;8.156;2023-04-03T05:17:13;4.10;99.90
10263;DHT22;5177;50.068;8.156;2023-04-03T05:19:38;4.10;99.90
10263;DHT22;5177;50.068;8.156;2023-04-03T05:22:04;4.10;99.90
10263;DHT22;5177;50.068;8.156;2023-04-03T05:24:29;4.10;99.90
10263;DHT22;5177;50.068;8.156;2023-04-03T05:26:55;4.10;99.90
10263;DHT22;5177;50.068;8.156;2023-04-03T05:29:21;4.10;99.90
10263;DHT22;5177;50.068;8.156;2023-04-03T05:31:48;4.10;99.90
10263;DHT22;5177;50.068;8.156;2023-04-03T05:34:14;4.10;99.90
10263;DHT22;5177;50.068;8.156;2023-04-03T05:36:40;4.10;99.90
10263;DHT22;5177;50.068;8.156;2023-04-03T05:39:08;4.10;99.90
10263;DHT22;5177;50.068;8.156;2023-04-03T05:41:33;4.10;99.90
10263;DHT22;5177;50.068;8.156;2023-04-03T05:43:59;4.20;99.90
10263;DHT22;5177;50.068;8.156;2023-04-03T05:46:24;4.10;99.90
10263;DHT22;5177;50.068;8.156;2023-04-03T05:48:50;4.10;99.90
10263;DHT22;5177;50.068;8.156;2023-04-03T05:51:21;4.10;99.90
10263;DHT22;5177;50.068;8.156;2023-04-03T05:53:47;4.20;99.90
10263;DHT22;5177;50.068;8.156;2023-04-03T05:56:13;4.20;99.90
10263;DHT22;5177;50.068;8.156;2023-04-03T05:58:39;4.20;99.90
10263;DHT22;5177;50.068;8.156;2023-04-03T06:01:05;4.30;99.90
10263;DHT22;5177;50.068;8.156;2023-04-03T06:03:31;4.20;99.90
10263;DHT22;5177;50.068;8.156;2023-04-03T06:05:56;4.30;99.90
10263;DHT22;5177;50.068;8.156;2023-04-03T06:08:22;4.20;99.90
10263;DHT22;5177;50.068;8.156;2023-04-03T06:10:49;4.30;99.90
10263;DHT22;5177;50.068;8.156;2023-04-03T06:13:15;4.30;99.90
10263;DHT22;5177;50.068;8.156;2023-04-03T06:15:41;4.40;99.90
10263;DHT22;5177;50.068;8.156;2023-04-03T06:18:06;4.40;99.90
10263;DHT22;5177;50.068;8.156;2023-04-03T06:20:32;4.40;99.90
10263;DHT22;5177;50.068;8.156;2023-04-03T06:22:57;4.30;99.90
10263;DHT22;5177;50.068;8.156;2023-04-03T06:25:23;4.30;99.90
10263;DHT22;5177;50.068;8.156;2023-04-03T06:27:48;4.40;99.90
10263;DHT22;5177;50.068;8.156;2023-04-03T06:30:14;4.50;99.90
10263;DHT22;5177;50.068;8.156;2023-04-03T06:32:39;4.60;99.90
10263;DHT22;5177;50.068;8.156;2023-04-03T06:35:05;4.60;99.90
10263;DHT22;5177;50.068;8.156;2023-04-03T06:37:31;4.70;99.90
10263;DHT22;5177;50.068;8.156;2023-04-03T06:39:57;4.70;99.90
10263;DHT22;5177;50.068;8.156;2023-04-03T06:42:23;4.80;99.90
10263;DHT22;5177;50.068;8.156;2023-04-03T06:44:49;4.90;99.90
10263;DHT22;5177;50.068;8.156;2023-04-03T06:47:14;5.10;99.90
10263;DHT22;5177;50.068;8.156;2023-04-03T06:49:40;5.20;99.90
10263;DHT22;5177;50.068;8.156;2023-04-03T06:52:06;5.30;99.90
10263;DHT22;5177;50.068;8.156;2023-04-03T06:54:32;5.40;99.90
10263;DHT22;5177;50.068;8.156;2023-04-03T06:56:58;5.50;99.90
10263;DHT22;5177;50.068;8.156;2023-04-03T06:59:23;5.50;99.90
10263;DHT22;5177;50.068;8.156;2023-04-03T07:01:49;5.60;99.90
10263;DHT22;5177;50.068;8.156;2023-04-03T07:04:14;5.70;99.90
10263;DHT22;5177;50.068;8.156;2023-04-03T07:06:40;5.70;99.90
10263;DHT22;5177;50.068;8.156;2023-04-03T07:09:07;5.90;99.90
10263;DHT22;5177;50.068;8.156;2023-04-03T07:11:32;6.00;99.90
10263;DHT22;5177;50.068;8.156;2023-04-03T07:13:58;6.10;99.90
10263;DHT22;5177;50.068;8.156;2023-04-03T07:16:23;6.00;99.90
10263;DHT22;5177;50.068;8.156;2023-04-03T07:18:49;6.10;99.90
10263;DHT22;5177;50.068;8.156;2023-04-03T07:21:14;6.10;99.90
10263;DHT22;5177;50.068;8.156;2023-04-03T07:23:40;6.20;99.90
10263;DHT22;5177;50.068;8.156;2023-04-03T07:26:06;6.20;99.90
10263;DHT22;5177;50.068;8.156;2023-04-03T07:28:31;6.30;99.90
10263;DHT22;5177;50.068;8.156;2023-04-03T07:31:05;6.50;99.90
10263;DHT22;5177;50.068;8.156;2023-04-03T07:33:33;6.40;99.90
10263;DHT22;5177;50.068;8.156;2023-04-03T07:36:00;6.50;99.90
10263;DHT22;5177;50.068;8.156;2023-04-03T07:38:26;6.50;99.90
10263;DHT22;5177;50.068;8.156;2023-04-03T07:40:52;6.70;99.90
10263;DHT22;5177;50.068;8.156;2023-04-03T07:43:18;6.80;99.90
10263;DHT22;5177;50.068;8.156;2023-04-03T07:45:44;7.00;99.90
10263;DHT22;5177;50.068;8.156;2023-04-03T07:48:10;7.10;99.90
10263;DHT22;5177;50.068;8.156;2023-04-03T07:50:36;7.10;99.90
10263;DHT22;5177;50.068;8.156;2023-04-03T07:53:02;7.00;99.90
10263;DHT22;5177;50.068;8.156;2023-04-03T07:55:28;7.00;99.90
10263;DHT22;5177;50.068;8.156;2023-04-03T07:57:53;7.10;99.90
10263;DHT22;5177;50.068;8.156;2023-04-03T08:00:19;7.20;99.90
10263;DHT22;5177;50.068;8.156;2023-04-03T08:02:45;7.30;99.90
10263;DHT22;5177;50.068;8.156;2023-04-03T08:05:16;7.40;99.90
10263;DHT22;5177;50.068;8.156;2023-04-03T08:07:42;7.60;99.90
10263;DHT22;5177;50.068;8.156;2023-04-03T08:10:08;7.60;99.90
10263;DHT22;5177;50.068;8.156;2023-04-03T08:12:34;7.80;99.90
10263;DHT22;5177;50.068;8.156;2023-04-03T08:15:00;7.70;99.90
10263;DHT22;5177;50.068;8.156;2023-04-03T08:17:26;7.70;99.90
10263;DHT22;5177;50.068;8.156;2023-04-03T08:19:52;7.70;99.90
10263;DHT22;5177;50.068;8.156;2023-04-03T08:22:17;7.60;99.90
10263;DHT22;5177;50.068;8.156;2023-04-03T08:24:43;7.60;99.90
10263;DHT22;5177;50.068;8.156;2023-04-03T08:27:08;7.80;99.90
10263;DHT22;5177;50.068;8.156;2023-04-03T08:29:34;7.70;99.90
10263;DHT22;5177;50.068;8.156;2023-04-03T08:31:59;7.70;99.90
10263;DHT22;5177;50.068;8.156;2023-04-03T08:34:25;7.80;99.90
10263;DHT22;5177;50.068;8.156;2023-04-03T08:36:51;7.90;99.90
10263;DHT22;5177;50.068;8.156;2023-04-03T08:39:16;8.20;99.90
10263;DHT22;5177;50.068;8.156;2023-04-03T08:41:42;8.30;99.90
10263;DHT22;5177;50.068;8.156;2023-04-03T08:46:40;8.40;99.90
10263;DHT22;5177;50.068;8.156;2023-04-03T08:50:11;8.50;99.90
10263;DHT22;5177;50.068;8.156;2023-04-03T08:52:11;8.50;99.90
10263;DHT22;5177;50.068;8.156;2023-04-03T08:54:48;8.50;99.90
10263;DHT22;5177;50.068;8.156;2023-04-03T08:57:16;8.70;99.90
10263;DHT22;5177;50.068;8.156;2023-04-03T08:59:42;8.80;99.90
10263;DHT22;5177;50.068;8.156;2023-04-03T09:02:16;8.90;99.90
10263;DHT22;5177;50.068;8.156;2023-04-03T09:04:45;9.00;99.90
10263;DHT22;5177;50.068;8.156;2023-04-03T09:07:16;9.00;99.90
10263;DHT22;5177;50.068;8.156;2023-04-03T09:09:44;9.20;99.90
10263;DHT22;5177;50.068;8.156;2023-04-03T09:15:19;9.40;99.90
10263;DHT22;5177;50.068;8.156;2023-04-03T09:17:30;9.50;99.90
10263;DHT22;5177;50.068;8.156;2023-04-03T09:22:33;9.80;99.90
10263;DHT22;5177;50.068;8.156;2023-04-03T09:25:13;9.80;99.90
10263;DHT22;5177;50.068;8.156;2023-04-03T09:27:39;9.70;99.90
10263;DHT22;5177;50.068;8.156;2023-04-03T09:30:04;9.80;99.90
10263;DHT22;5177;50.068;8.156;2023-04-03T09:32:33;9.90;99.90
10263;DHT22;5177;50.068;8.156;2023-04-03T09:35:01;9.70;99.90
10263;DHT22;5177;50.068;8.156;2023-04-03T09:37:39;9.40;99.90
10263;DHT22;5177;50.068;8.156;2023-04-03T09:40:05;9.50;99.90
10263;DHT22;5177;50.068;8.156;2023-04-03T09:42:31;9.70;99.90
10263;DHT22;5177;50.068;8.156;2023-04-03T09:44:58;9.80;99.90
10263;DHT22;5177;50.068;8.156;2023-04-03T09:47:33;9.80;99.90
10263;DHT22;5177;50.068;8.156;2023-04-03T09:52:43;9.50;99.90
10263;DHT22;5177;50.068;8.156;2023-04-03T09:55:17;9.50;99.90
10263;DHT22;5177;50.068;8.156;2023-04-03T09:57:43;9.40;99.90
10263;DHT22;5177;50.068;8.156;2023-04-03T10:00:23;9.30;99.90
10263;DHT22;5177;50.068;8.156;2023-04-03T10:02:50;9.20;99.90
10263;DHT22;5177;50.068;8.156;2023-04-03T10:05:26;9.10;99.90
10263;DHT22;5177;50.068;8.156;2023-04-03T10:07:52;9.30;99.90
10263;DHT22;5177;50.068;8.156;2023-04-03T10:10:32;9.70;99.90
10263;DHT22;5177;50.068;8.156;2023-04-03T10:13:13;9.70;99.90
10263;DHT22;5177;50.068;8.156;2023-04-03T10:15:41;9.80;99.90
10263;DHT22;5177;50.068;8.156;2023-04-03T10:20:49;9.60;99.90
10263;DHT22;5177;50.068;8.156;2023-04-03T10:24:00;9.70;99.90
10263;DHT22;5177;50.068;8.156;2023-04-03T10:26:09;9.90;99.90
10263;DHT22;5177;50.068;8.156;2023-04-03T10:31:18;10.00;99.90
10263;DHT22;5177;50.068;8.156;2023-04-03T10:34:04;9.90;99.90
10263;DHT22;5177;50.068;8.156;2023-04-03T10:39:21;10.10;99.90
10263;DHT22;5177;50.068;8.156;2023-04-03T10:47:10;10.70;99.90
10263;DHT22;5177;50.068;8.156;2023-04-03T10:52:13;11.00;99.90
10263;DHT22;5177;50.068;8.156;2023-04-03T10:54:41;11.10;99.90
10263;DHT22;5177;50.068;8.156;2023-04-03T10:57:10;11.00;99.90
10263;DHT22;5177;50.068;8.156;2023-04-03T11:02:06;11.40;99.90
10263;DHT22;5177;50.068;8.156;2023-04-03T11:04:34;11.40;99.90
10263;DHT22;5177;50.068;8.156;2023-04-03T11:07:02;11.30;99.90
10263;DHT22;5177;50.068;8.156;2023-04-03T11:09:34;11.50;99.90
10263;DHT22;5177;50.068;8.156;2023-04-03T11:12:09;11.40;99.90
10263;DHT22;5177;50.068;8.156;2023-04-03T11:14:37;11.30;99.90
10263;DHT22;5177;50.068;8.156;2023-04-03T11:19:52;11.30;99.90
10263;DHT22;5177;50.068;8.156;2023-04-03T11:22:27;11.30;99.90
10263;DHT22;5177;50.068;8.156;2023-04-03T11:24:59;11.50;99.90
10263;DHT22;5177;50.068;8.156;2023-04-03T11:27:27;11.60;99.90
10263;DHT22;5177;50.068;8.156;2023-04-03T11:29:59;11.70;99.90
10263;DHT22;5177;50.068;8.156;2023-04-03T11:32:39;11.80;99.90
10263;DHT22;5177;50.068;8.156;2023-04-03T11:35:07;11.60;99.90
10263;DHT22;5177;50.068;8.156;2023-04-03T11:37:44;11.50;99.90
10263;DHT22;5177;50.068;8.156;2023-04-03T11:40:19;11.60;99.90
10263;DHT22;5177;50.068;8.156;2023-04-03T11:42:47;11.40;99.90
10263;DHT22;5177;50.068;8.156;2023-04-03T11:47:52;11.50;99.90
10263;DHT22;5177;50.068;8.156;2023-04-03T12:03:29;11.80;99.90
10263;DHT22;5177;50.068;8.156;2023-04-03T12:16:02;12.30;99.40
10263;DHT22;5177;50.068;8.156;2023-04-03T12:18:40;12.40;99.00
10263;DHT22;5177;50.068;8.156;2023-04-03T12:21:06;12.50;97.60
10263;DHT22;5177;50.068;8.156;2023-04-03T12:23:33;12.60;99.20
10263;DHT22;5177;50.068;8.156;2023-04-03T12:26:00;12.50;98.20
10263;DHT22;5177;50.068;8.156;2023-04-03T12:28:26;12.50;96.00
10263;DHT22;5177;50.068;8.156;2023-04-03T12:30:52;12.50;96.00
10263;DHT22;5177;50.068;8.156;2023-04-03T12:33:30;12.40;95.50
10263;DHT22;5177;50.068;8.156;2023-04-03T12:36:07;12.40;94.50
10263;DHT22;5177;50.068;8.156;2023-04-03T12:38:53;12.60;93.80
10263;DHT22;5177;50.068;8.156;2023-04-03T12:41:26;12.50;90.90
10263;DHT22;5177;50.068;8.156;2023-04-03T12:46:38;12.80;91.10
10263;DHT22;5177;50.068;8.156;2023-04-03T12:49:12;12.90;90.00
10263;DHT22;5177;50.068;8.156;2023-04-03T12:51:40;13.10;88.30
10263;DHT22;5177;50.068;8.156;2023-04-03T12:54:16;13.00;79.40
10263;DHT22;5177;50.068;8.156;2023-04-03T12:56:43;13.00;81.60
10263;DHT22;5177;50.068;8.156;2023-04-03T12:59:14;12.90;75.80
10263;DHT22;5177;50.068;8.156;2023-04-03T13:01:40;13.10;79.80
10263;DHT22;5177;50.068;8.156;2023-04-03T13:04:05;13.20;84.10
10263;DHT22;5177;50.068;8.156;2023-04-03T13:06:37;13.20;76.70
10263;DHT22;5177;50.068;8.156;2023-04-03T13:09:03;13.20;74.80
10263;DHT22;5177;50.068;8.156;2023-04-03T13:11:34;13.20;74.10
10263;DHT22;5177;50.068;8.156;2023-04-03T13:14:02;13.30;72.80
10263;DHT22;5177;50.068;8.156;2023-04-03T13:16:30;13.20;69.90
10263;DHT22;5177;50.068;8.156;2023-04-03T13:18:57;13.10;71.70
10263;DHT22;5177;50.068;8.156;2023-04-03T13:21:26;13.30;75.20
10263;DHT22;5177;50.068;8.156;2023-04-03T13:23:54;13.30;71.60
10263;DHT22;5177;50.068;8.156;2023-04-03T13:26:21;13.50;75.40
10263;DHT22;5177;50.068;8.156;2023-04-03T13:28:47;13.60;74.80
10263;DHT22;5177;50.068;8.156;2023-04-03T13:33:41;13.50;65.50
10263;DHT22;5177;50.068;8.156;2023-04-03T13:36:55;13.40;65.10
10263;DHT22;5177;50.068;8.156;2023-04-03T13:38:58;13.30;66.80
10263;DHT22;5177;50.068;8.156;2023-04-03T13:41:25;13.40;63.00
10263;DHT22;5177;50.068;8.156;2023-04-03T13:43:51;13.30;60.80
10263;DHT22;5177;50.068;8.156;2023-04-03T13:48:46;13.40;68.70
10263;DHT22;5177;50.068;8.156;2023-04-03T13:53:49;13.30;59.10
10263;DHT22;5177;50.068;8.156;2023-04-03T13:56:24;13.20;61.30
10263;DHT22;5177;50.068;8.156;2023-04-03T13:58:54;13.20;59.00
10263;DHT22;5177;50.068;8.156;2023-04-03T14:01:21;13.10;58.00
10263;DHT22;5177;50.068;8.156;2023-04-03T14:03:52;13.10;57.80
10263;DHT22;5177;50.068;8.156;2023-04-03T14:06:18;13.20;60.10
10263;DHT22;5177;50.068;8.156;2023-04-03T14:08:44;13.00;59.40
10263;DHT22;5177;50.068;8.156;2023-04-03T14:11:20;13.10;58.80
10263;DHT22;5177;50.068;8.156;2023-04-03T14:13:47;13.60;57.40
10263;DHT22;5177;50.068;8.156;2023-04-03T14:16:23;13.60;54.60
10263;DHT22;5177;50.068;8.156;2023-04-03T14:18:51;13.50;56.10
10263;DHT22;5177;50.068;8.156;2023-04-03T14:21:18;13.60;53.70
10263;DHT22;5177;50.068;8.156;2023-04-03T14:23:44;13.70;54.80
10263;DHT22;5177;50.068;8.156;2023-04-03T14:26:14;14.00;55.10
10263;DHT22;5177;50.068;8.156;2023-04-03T14:28:41;14.10;56.30
10263;DHT22;5177;50.068;8.156;2023-04-03T14:31:09;14.90;51.80
10263;DHT22;5177;50.068;8.156;2023-04-03T14:33:36;15.40;47.40
10263;DHT22;5177;50.068;8.156;2023-04-03T14:36:05;16.10;46.40
10263;DHT22;5177;50.068;8.156;2023-04-03T14:38:30;16.90;41.70
10263;DHT22;5177;50.068;8.156;2023-04-03T14:40:56;17.70;37.30
10263;DHT22;5177;50.068;8.156;2023-04-03T14:43:22;18.00;34.30
10263;DHT22;5177;50.068;8.156;2023-04-03T14:45:48;18.50;31.30
10263;DHT22;5177;50.068;8.156;2023-04-03T14:48:19;18.90;28.20
10263;DHT22;5177;50.068;8.156;2023-04-03T14:50:45;19.00;29.60
10263;DHT22;5177;50.068;8.156;2023-04-03T14:53:11;19.00;27.40
10263;DHT22;5177;50.068;8.156;2023-04-03T14:55:37;19.10;25.40
10263;DHT22;5177;50.068;8.156;2023-04-03T14:58:02;19.10;24.80
10263;DHT22;5177;50.068;8.156;2023-04-03T15:00:28;19.00;22.80
10263;DHT22;5177;50.068;8.156;2023-04-03T15:02:53;19.10;21.70
10263;DHT22;5177;50.068;8.156;2023-04-03T15:05:19;18.80;23.60
10263;DHT22;5177;50.068;8.156;2023-04-03T15:07:49;18.80;21.50
10263;DHT22;5177;50.068;8.156;2023-04-03T15:12:40;19.20;19.90
10263;DHT22;5177;50.068;8.156;2023-04-03T15:15:06;18.40;19.90
10263;DHT22;5177;50.068;8.156;2023-04-03T15:17:32;18.40;21.00
10263;DHT22;5177;50.068;8.156;2023-04-03T15:19:58;17.90;21.40
10263;DHT22;5177;50.068;8.156;2023-04-03T15:22:24;17.90;23.00
10263;DHT22;5177;50.068;8.156;2023-04-03T15:24:50;18.50;21.20
10263;DHT22;5177;50.068;8.156;2023-04-03T15:27:15;18.30;19.20
10263;DHT22;5177;50.068;8.156;2023-04-03T15:29:41;17.80;20.50
10263;DHT22;5177;50.068;8.156;2023-04-03T15:32:08;17.90;19.50
10263;DHT22;5177;50.068;8.156;2023-04-03T15:34:34;17.60;20.10
10263;DHT22;5177;50.068;8.156;2023-04-03T15:36:59;17.70;21.00
10263;DHT22;5177;50.068;8.156;2023-04-03T15:39:25;17.20;21.20
10263;DHT22;5177;50.068;8.156;2023-04-03T15:41:51;16.90;20.30
10263;DHT22;5177;50.068;8.156;2023-04-03T15:44:20;16.90;20.80
10263;DHT22;5177;50.068;8.156;2023-04-03T15:46:46;16.80;20.90
10263;DHT22;5177;50.068;8.156;2023-04-03T15:49:13;16.60;21.80
10263;DHT22;5177;50.068;8.156;2023-04-03T15:51:38;15.70;21.80
10263;DHT22;5177;50.068;8.156;2023-04-03T15:54:04;14.00;22.70
10263;DHT22;5177;50.068;8.156;2023-04-03T15:56:29;12.80;24.30
10263;DHT22;5177;50.068;8.156;2023-04-03T15:58:55;11.90;26.20
10263;DHT22;5177;50.068;8.156;2023-04-03T16:01:20;11.40;28.70
10263;DHT22;5177;50.068;8.156;2023-04-03T16:03:46;10.90;30.10
10263;DHT22;5177;50.068;8.156;2023-04-03T16:06:13;10.60;31.80
10263;DHT22;5177;50.068;8.156;2023-04-03T16:08:39;10.30;33.70
10263;DHT22;5177;50.068;8.156;2023-04-03T16:11:04;10.00;33.70
10263;DHT22;5177;50.068;8.156;2023-04-03T16:13:30;9.90;37.10
10263;DHT22;5177;50.068;8.156;2023-04-03T16:15:55;9.60;38.10
10263;DHT22;5177;50.068;8.156;2023-04-03T16:18:21;9.40;39.80
10263;DHT22;5177;50.068;8.156;2023-04-03T16:20:46;9.20;41.30
10263;DHT22;5177;50.068;8.156;2023-04-03T16:23:12;9.20;44.00
10263;DHT22;5177;50.068;8.156;2023-04-03T16:25:38;9.10;45.60
10263;DHT22;5177;50.068;8.156;2023-04-03T16:28:03;9.00;48.80
10263;DHT22;5177;50.068;8.156;2023-04-03T16:30:29;8.90;49.40
10263;DHT22;5177;50.068;8.156;2023-04-03T16:32:55;8.90;51.30
10263;DHT22;5177;50.068;8.156;2023-04-03T16:35:21;8.90;53.50
10263;DHT22;5177;50.068;8.156;2023-04-03T16:37:47;8.90;55.00
10263;DHT22;5177;50.068;8.156;2023-04-03T16:40:12;8.90;50.60
10263;DHT22;5177;50.068;8.156;2023-04-03T16:42:38;8.80;52.00
10263;DHT22;5177;50.068;8.156;2023-04-03T16:45:04;8.70;52.60
10263;DHT22;5177;50.068;8.156;2023-04-03T16:47:31;8.70;53.40
10263;DHT22;5177;50.068;8.156;2023-04-03T16:49:56;8.50;55.40
10263;DHT22;5177;50.068;8.156;2023-04-03T16:52:22;8.50;57.00
10263;DHT22;5177;50.068;8.156;2023-04-03T16:54:47;8.50;58.30
10263;DHT22;5177;50.068;8.156;2023-04-03T16:57:13;8.30;59.00
10263;DHT22;5177;50.068;8.156;2023-04-03T16:59:38;8.30;62.40
10263;DHT22;5177;50.068;8.156;2023-04-03T17:02:04;8.30;63.60
10263;DHT22;5177;50.068;8.156;2023-04-03T17:04:29;8.30;63.20
10263;DHT22;5177;50.068;8.156;2023-04-03T17:06:55;8.30;63.10
10263;DHT22;5177;50.068;8.156;2023-04-03T17:09:21;8.10;63.20
10263;DHT22;5177;50.068;8.156;2023-04-03T17:11:48;8.20;65.10
10263;DHT22;5177;50.068;8.156;2023-04-03T17:14:13;8.10;65.80
10263;DHT22;5177;50.068;8.156;2023-04-03T17:16:39;8.20;66.80